createdAt,value
2022-11-26T00:01:47.961Z,100.00
2022-11-26T00:07:20.122Z,100.00
2022-11-26T00:12:47.591Z,100.00
2022-11-26T00:18:15.741Z,100.00
2022-11-26T00:23:43.372Z,100.00
2022-11-26T00:29:10.390Z,100.00
2022-11-26T00:34:44.497Z,100.00
2022-11-26T00:40:16.418Z,100.00
2022-11-26T00:45:40.501Z,100.00
2022-11-26T00:51:12.719Z,100.00
2022-11-26T00:56:44.842Z,100.00
2022-11-26T01:02:13.912Z,100.00
2022-11-26T01:07:43.614Z,100.00
2022-11-26T01:13:11.278Z,100.00
2022-11-26T01:18:37.616Z,100.00
2022-11-26T01:24:05.095Z,100.00
2022-11-26T01:29:29.292Z,100.00
2022-11-26T01:34:53.120Z,100.00
2022-11-26T01:40:51.206Z,100.00
2022-11-26T01:46:28.901Z,100.00
2022-11-26T01:51:58.191Z,100.00
2022-11-26T01:57:34.047Z,100.00
2022-11-26T02:03:01.346Z,100.00
2022-11-26T02:08:35.397Z,100.00
2022-11-26T02:14:05.543Z,100.00
2022-11-26T02:20:14.446Z,100.00
2022-11-26T02:26:03.117Z,100.00
2022-11-26T02:31:45.252Z,100.00
2022-11-26T02:37:20.245Z,100.00
2022-11-26T02:42:43.014Z,100.00
2022-11-26T02:48:25.173Z,100.00
2022-11-26T02:54:01.829Z,100.00
2022-11-26T02:59:35.282Z,100.00
2022-11-26T03:05:06.385Z,100.00
2022-11-26T03:10:56.586Z,100.00
2022-11-26T03:16:20.631Z,100.00
2022-11-26T03:27:25.176Z,100.00
2022-11-26T03:32:51.853Z,100.00
2022-11-26T03:38:17.280Z,100.00
2022-11-26T03:43:42.655Z,100.00
2022-11-26T03:49:08.349Z,100.00
2022-11-26T03:54:36.268Z,100.00
2022-11-26T04:00:00.243Z,100.00
2022-11-26T04:05:23.885Z,100.00
2022-11-26T04:10:52.416Z,100.00
2022-11-26T04:16:17.147Z,100.00
2022-11-26T04:21:44.273Z,100.00
2022-11-26T04:27:27.180Z,100.00
2022-11-26T04:32:53.101Z,100.00
2022-11-26T04:38:19.461Z,100.00
2022-11-26T04:43:49.415Z,100.00
2022-11-26T04:49:18.377Z,100.00
2022-11-26T04:54:41.850Z,100.00
2022-11-26T05:00:09.233Z,100.00
2022-11-26T05:05:32.568Z,100.00
2022-11-26T05:10:57.273Z,100.00
2022-11-26T05:16:24.686Z,100.00
2022-11-26T05:21:59.860Z,100.00
2022-11-26T05:27:24.083Z,100.00
2022-11-26T05:32:52.127Z,100.00
2022-11-26T05:38:17.092Z,100.00
2022-11-26T05:43:42.545Z,100.00
2022-11-26T05:49:08.961Z,100.00
2022-11-26T05:54:35.489Z,100.00
2022-11-26T05:59:59.224Z,100.00
2022-11-26T06:05:24.877Z,100.00
2022-11-26T06:10:47.993Z,100.00
2022-11-26T06:16:13.010Z,100.00
2022-11-26T06:21:39.234Z,100.00
2022-11-26T06:27:04.679Z,100.00
2022-11-26T06:32:30.374Z,100.00
2022-11-26T06:38:00.455Z,100.00
2022-11-26T06:43:38.693Z,100.00
2022-11-26T06:49:06.863Z,100.00
2022-11-26T06:54:31.760Z,100.00
2022-11-26T06:59:57.186Z,100.00
2022-11-26T07:05:20.906Z,100.00
2022-11-26T07:10:49.385Z,100.00
2022-11-26T07:16:19.376Z,100.00
2022-11-26T07:21:57.272Z,100.00
2022-11-26T07:27:32.520Z,100.00
2022-11-26T07:33:09.429Z,100.00
2022-11-26T07:38:33.301Z,100.00
2022-11-26T07:44:13.219Z,100.00
2022-11-26T07:49:41.827Z,100.00
2022-11-26T07:55:11.018Z,100.00
2022-11-26T08:00:58.429Z,100.00
2022-11-26T08:06:32.160Z,100.00
2022-11-26T08:12:00.549Z,100.00
2022-11-26T08:17:30.635Z,100.00
2022-11-26T08:23:09.230Z,100.00
2022-11-26T08:28:47.899Z,100.00
2022-11-26T08:34:20.024Z,100.00
2022-11-26T08:39:46.731Z,100.00
2022-11-26T08:45:17.633Z,100.00
2022-11-26T08:50:49.153Z,100.00
2022-11-26T08:56:21.597Z,100.00
2022-11-26T09:02:01.171Z,100.00
2022-11-26T09:07:26.606Z,100.00
2022-11-26T09:12:51.969Z,100.00
2022-11-26T09:18:17.293Z,100.00
2022-11-26T09:23:51.446Z,100.00
2022-11-26T09:29:15.841Z,100.00
2022-11-26T09:34:50.720Z,100.00
2022-11-26T09:40:21.245Z,100.00
2022-11-26T09:45:53.927Z,100.00
2022-11-26T09:51:21.041Z,100.00
2022-11-26T09:56:57.399Z,100.00
2022-11-26T10:02:35.683Z,100.00
2022-11-26T10:08:08.022Z,100.00
2022-11-26T10:13:49.738Z,100.00
2022-11-26T10:19:36.278Z,100.00
2022-11-26T10:25:07.320Z,100.00
2022-11-26T10:30:35.314Z,100.00
2022-11-26T10:36:01.575Z,100.00
2022-11-26T10:41:36.338Z,100.00
2022-11-26T10:47:19.764Z,100.00
2022-11-26T10:52:47.305Z,100.00
2022-11-26T10:58:23.936Z,100.00
2022-11-26T11:04:08.273Z,100.00
2022-11-26T11:09:39.278Z,100.00
2022-11-26T11:15:25.152Z,99.77
2022-11-26T11:20:56.482Z,100.00
2022-11-26T11:26:25.258Z,100.00
2022-11-26T11:31:49.628Z,100.00
2022-11-26T11:37:26.047Z,99.56
2022-11-26T11:42:52.198Z,100.00
2022-11-26T11:48:29.776Z,100.00
2022-11-26T11:54:07.541Z,100.00
2022-11-26T12:00:09.940Z,100.00
2022-11-26T12:06:21.187Z,100.00
2022-11-26T12:11:58.558Z,100.00
2022-11-26T12:17:38.348Z,99.81
2022-11-26T12:23:25.720Z,98.97
2022-11-26T12:29:01.762Z,95.73
2022-11-26T12:34:35.224Z,96.32
2022-11-26T12:40:07.384Z,96.15
2022-11-26T12:45:47.080Z,95.07
2022-11-26T12:51:26.747Z,95.77
2022-11-26T12:57:01.517Z,95.06
2022-11-26T13:02:34.004Z,94.13
2022-11-26T13:08:13.683Z,94.41
2022-11-26T13:13:46.746Z,94.52
2022-11-26T13:19:25.790Z,93.54
2022-11-26T13:25:12.080Z,93.77
2022-11-26T13:30:57.884Z,93.88
2022-11-26T13:36:50.276Z,94.32
2022-11-26T13:42:44.943Z,93.21
2022-11-26T13:48:14.155Z,94.08
2022-11-26T13:53:45.233Z,94.55
2022-11-26T13:59:26.906Z,93.18
2022-11-26T14:05:01.281Z,93.59
2022-11-26T14:10:47.598Z,92.95
2022-11-26T14:16:18.182Z,93.31
2022-11-26T14:22:04.922Z,94.74
2022-11-26T14:27:32.749Z,94.97
2022-11-26T14:33:10.852Z,96.10
2022-11-26T14:38:57.016Z,95.79
2022-11-26T14:44:29.729Z,95.18
2022-11-26T14:50:00.409Z,95.00
2022-11-26T14:55:31.001Z,96.21
2022-11-26T15:01:22.287Z,98.50
2022-11-26T15:07:07.548Z,98.28
2022-11-26T15:12:35.109Z,98.94
2022-11-26T15:18:20.363Z,99.19
2022-11-26T15:23:43.989Z,99.59
2022-11-26T15:29:41.971Z,100.00
2022-11-26T15:35:12.202Z,100.00
2022-11-26T15:40:51.841Z,100.00
2022-11-26T15:46:28.981Z,100.00
2022-11-26T15:51:58.565Z,100.00
2022-11-26T15:57:28.718Z,100.00
2022-11-26T16:03:04.751Z,100.00
2022-11-26T16:08:49.149Z,100.00
2022-11-26T16:14:40.800Z,100.00
2022-11-26T16:20:09.525Z,100.00
2022-11-26T16:25:43.252Z,100.00
2022-11-26T16:31:09.002Z,100.00
2022-11-26T16:36:48.443Z,100.00
2022-11-26T16:42:21.129Z,100.00
2022-11-26T16:47:49.760Z,100.00
2022-11-26T16:53:16.127Z,100.00
2022-11-26T16:58:46.117Z,100.00
2022-11-26T17:04:09.810Z,100.00
2022-11-26T17:09:33.531Z,100.00
2022-11-26T17:14:59.984Z,100.00
2022-11-26T17:20:31.293Z,100.00
2022-11-26T17:25:59.389Z,100.00
2022-11-26T17:31:26.180Z,100.00
2022-11-26T17:36:51.067Z,100.00
2022-11-26T17:42:21.552Z,100.00
2022-11-26T17:47:54.842Z,100.00
2022-11-26T17:53:25.540Z,100.00
2022-11-26T17:58:51.934Z,100.00
2022-11-26T18:04:21.294Z,100.00
2022-11-26T18:10:15.300Z,100.00
2022-11-26T18:15:39.127Z,100.00
2022-11-26T18:21:07.939Z,100.00
2022-11-26T18:26:31.322Z,100.00
2022-11-26T18:32:00.245Z,100.00
2022-11-26T18:37:47.690Z,100.00
2022-11-26T18:43:12.146Z,100.00
2022-11-26T18:48:46.388Z,100.00
2022-11-26T18:54:13.569Z,100.00
2022-11-26T18:59:42.276Z,100.00
2022-11-26T19:05:08.214Z,100.00
2022-11-26T19:10:46.960Z,100.00
2022-11-26T19:16:22.259Z,100.00
2022-11-26T19:22:00.700Z,100.00
2022-11-26T19:27:31.422Z,100.00
2022-11-26T19:32:57.547Z,100.00
2022-11-26T19:38:24.504Z,100.00
2022-11-26T19:43:53.127Z,100.00
2022-11-26T19:49:28.750Z,100.00
2022-11-26T19:55:17.084Z,100.00
2022-11-26T20:00:46.665Z,100.00
2022-11-26T20:06:22.563Z,100.00
2022-11-26T20:11:46.457Z,100.00
2022-11-26T20:17:14.127Z,100.00
2022-11-26T20:22:41.184Z,100.00
2022-11-26T20:28:08.584Z,100.00
2022-11-26T20:33:59.426Z,100.00
2022-11-26T20:39:26.813Z,100.00
2022-11-26T20:44:55.602Z,100.00
2022-11-26T20:50:28.483Z,100.00
2022-11-26T20:56:02.077Z,100.00
2022-11-26T21:01:31.128Z,100.00
2022-11-26T21:06:57.131Z,100.00
2022-11-26T21:12:21.294Z,100.00
2022-11-26T21:17:44.775Z,100.00
2022-11-26T21:23:10.193Z,100.00
2022-11-26T21:28:42.209Z,100.00
2022-11-26T21:34:12.678Z,100.00
2022-11-26T21:39:40.386Z,100.00
2022-11-26T21:45:12.357Z,100.00
2022-11-26T21:50:37.882Z,100.00
2022-11-26T21:56:10.992Z,100.00
2022-11-26T22:01:40.528Z,100.00
2022-11-26T22:07:06.051Z,100.00
2022-11-26T22:12:35.836Z,100.00
2022-11-26T22:18:01.673Z,100.00
2022-11-26T22:23:29.161Z,100.00
2022-11-26T22:28:55.708Z,100.00
2022-11-26T22:34:26.309Z,100.00
2022-11-26T22:40:02.293Z,100.00
2022-11-26T22:46:00.971Z,100.00
2022-11-26T22:51:25.225Z,100.00
2022-11-26T22:57:08.912Z,100.00
2022-11-26T23:02:35.144Z,100.00
2022-11-26T23:08:00.634Z,100.00
2022-11-26T23:13:39.498Z,100.00
2022-11-26T23:19:06.772Z,100.00
2022-11-26T23:24:33.479Z,100.00
2022-11-26T23:30:12.258Z,100.00
2022-11-26T23:36:00.904Z,100.00
2022-11-26T23:41:30.659Z,100.00
2022-11-26T23:46:54.998Z,100.00
2022-11-26T23:52:23.780Z,100.00
2022-11-26T23:57:48.761Z,100.00
